sensor_id;sensor_type;location;lat;lon;timestamp;temperature;humidity
20526;DHT22;10421;49.142;9.232;2022-08-06T00:01:10;26.20;49.90
20526;DHT22;10421;49.142;9.232;2022-08-06T00:03:37;26.20;49.90
20526;DHT22;10421;49.142;9.232;2022-08-06T00:06:05;26.30;49.90
20526;DHT22;10421;49.142;9.232;2022-08-06T00:08:32;26.20;49.80
20526;DHT22;10421;49.142;9.232;2022-08-06T00:10:59;26.30;50.30
20526;DHT22;10421;49.142;9.232;2022-08-06T00:13:25;26.30;50.00
20526;DHT22;10421;49.142;9.232;2022-08-06T00:15:52;26.30;50.00
20526;DHT22;10421;49.142;9.232;2022-08-06T00:18:19;26.30;50.00
20526;DHT22;10421;49.142;9.232;2022-08-06T00:20:46;26.30;50.00
20526;DHT22;10421;49.142;9.232;2022-08-06T00:23:14;26.30;50.10
20526;DHT22;10421;49.142;9.232;2022-08-06T00:25:41;26.40;50.10
20526;DHT22;10421;49.142;9.232;2022-08-06T00:28:07;26.30;50.10
20526;DHT22;10421;49.142;9.232;2022-08-06T00:30:34;26.40;50.20
20526;DHT22;10421;49.142;9.232;2022-08-06T00:33:01;26.40;50.20
20526;DHT22;10421;49.142;9.232;2022-08-06T00:35:27;26.30;50.20
20526;DHT22;10421;49.142;9.232;2022-08-06T00:37:55;26.30;50.50
20526;DHT22;10421;49.142;9.232;2022-08-06T00:40:23;26.20;50.50
20526;DHT22;10421;49.142;9.232;2022-08-06T00:42:51;26.20;50.50
20526;DHT22;10421;49.142;9.232;2022-08-06T00:45:18;26.10;50.60
20526;DHT22;10421;49.142;9.232;2022-08-06T00:47:45;26.10;50.70
20526;DHT22;10421;49.142;9.232;2022-08-06T00:50:12;26.10;50.80
20526;DHT22;10421;49.142;9.232;2022-08-06T00:52:38;26.10;50.90
20526;DHT22;10421;49.142;9.232;2022-08-06T00:55:06;26.00;51.00
20526;DHT22;10421;49.142;9.232;2022-08-06T00:57:34;26.00;51.10
20526;DHT22;10421;49.142;9.232;2022-08-06T01:00:01;25.90;51.20
20526;DHT22;10421;49.142;9.232;2022-08-06T01:02:27;25.80;51.30
20526;DHT22;10421;49.142;9.232;2022-08-06T01:04:54;25.80;51.40
20526;DHT22;10421;49.142;9.232;2022-08-06T01:07:21;25.80;51.50
20526;DHT22;10421;49.142;9.232;2022-08-06T01:09:48;25.70;51.80
20526;DHT22;10421;49.142;9.232;2022-08-06T01:12:15;25.60;51.90
20526;DHT22;10421;49.142;9.232;2022-08-06T01:14:43;25.60;52.10
20526;DHT22;10421;49.142;9.232;2022-08-06T01:17:17;25.60;52.20
20526;DHT22;10421;49.142;9.232;2022-08-06T01:19:50;25.50;52.40
20526;DHT22;10421;49.142;9.232;2022-08-06T01:22:42;25.40;52.50
20526;DHT22;10421;49.142;9.232;2022-08-06T01:25:36;25.40;52.50
20526;DHT22;10421;49.142;9.232;2022-08-06T01:28:15;25.40;52.70
20526;DHT22;10421;49.142;9.232;2022-08-06T01:30:46;25.40;52.80
20526;DHT22;10421;49.142;9.232;2022-08-06T01:33:17;25.40;52.80
20526;DHT22;10421;49.142;9.232;2022-08-06T01:35:47;25.40;52.90
20526;DHT22;10421;49.142;9.232;2022-08-06T01:38:20;25.40;53.10
20526;DHT22;10421;49.142;9.232;2022-08-06T01:40:50;25.30;53.20
20526;DHT22;10421;49.142;9.232;2022-08-06T01:43:20;25.30;53.20
20526;DHT22;10421;49.142;9.232;2022-08-06T01:45:49;25.30;53.20
20526;DHT22;10421;49.142;9.232;2022-08-06T01:48:21;25.30;53.30
20526;DHT22;10421;49.142;9.232;2022-08-06T01:50:49;25.30;53.40
20526;DHT22;10421;49.142;9.232;2022-08-06T01:53:23;25.20;53.40
20526;DHT22;10421;49.142;9.232;2022-08-06T01:55:53;25.20;53.50
20526;DHT22;10421;49.142;9.232;2022-08-06T01:58:25;25.20;53.60
20526;DHT22;10421;49.142;9.232;2022-08-06T02:00:54;25.20;53.70
20526;DHT22;10421;49.142;9.232;2022-08-06T02:03:25;25.20;53.90
20526;DHT22;10421;49.142;9.232;2022-08-06T02:05:54;25.10;53.90
20526;DHT22;10421;49.142;9.232;2022-08-06T02:08:23;25.10;54.10
20526;DHT22;10421;49.142;9.232;2022-08-06T02:10:52;25.10;54.20
20526;DHT22;10421;49.142;9.232;2022-08-06T02:13:22;25.10;54.20
20526;DHT22;10421;49.142;9.232;2022-08-06T02:15:49;25.10;54.20
20526;DHT22;10421;49.142;9.232;2022-08-06T02:18:20;25.10;54.30
20526;DHT22;10421;49.142;9.232;2022-08-06T02:20:50;25.10;54.40
20526;DHT22;10421;49.142;9.232;2022-08-06T02:23:20;25.10;54.40
20526;DHT22;10421;49.142;9.232;2022-08-06T02:25:48;25.10;54.60
20526;DHT22;10421;49.142;9.232;2022-08-06T02:28:17;25.10;54.60
20526;DHT22;10421;49.142;9.232;2022-08-06T02:30:47;25.10;54.60
20526;DHT22;10421;49.142;9.232;2022-08-06T02:33:15;25.00;54.80
20526;DHT22;10421;49.142;9.232;2022-08-06T02:35:46;25.00;54.90
20526;DHT22;10421;49.142;9.232;2022-08-06T02:38:26;25.00;55.00
20526;DHT22;10421;49.142;9.232;2022-08-06T02:40:57;25.00;55.00
20526;DHT22;10421;49.142;9.232;2022-08-06T02:43:30;25.00;55.00
20526;DHT22;10421;49.142;9.232;2022-08-06T02:46:04;24.90;55.00
20526;DHT22;10421;49.142;9.232;2022-08-06T02:48:36;24.90;55.10
20526;DHT22;10421;49.142;9.232;2022-08-06T02:51:10;24.90;55.10
20526;DHT22;10421;49.142;9.232;2022-08-06T02:53:43;24.80;55.30
20526;DHT22;10421;49.142;9.232;2022-08-06T02:56:13;24.80;55.30
20526;DHT22;10421;49.142;9.232;2022-08-06T02:58:43;24.70;55.40
20526;DHT22;10421;49.142;9.232;2022-08-06T03:01:16;24.70;55.80
20526;DHT22;10421;49.142;9.232;2022-08-06T03:03:46;24.70;55.90
20526;DHT22;10421;49.142;9.232;2022-08-06T03:06:15;24.70;55.80
20526;DHT22;10421;49.142;9.232;2022-08-06T03:08:45;24.70;55.80
20526;DHT22;10421;49.142;9.232;2022-08-06T03:11:13;24.80;55.90
20526;DHT22;10421;49.142;9.232;2022-08-06T03:13:42;24.80;55.90
20526;DHT22;10421;49.142;9.232;2022-08-06T03:16:11;24.80;55.90
20526;DHT22;10421;49.142;9.232;2022-08-06T03:18:42;24.80;55.90
20526;DHT22;10421;49.142;9.232;2022-08-06T03:21:09;24.80;55.80
20526;DHT22;10421;49.142;9.232;2022-08-06T03:23:37;24.80;55.80
20526;DHT22;10421;49.142;9.232;2022-08-06T03:26:05;24.90;55.80
20526;DHT22;10421;49.142;9.232;2022-08-06T03:28:34;24.90;55.90
20526;DHT22;10421;49.142;9.232;2022-08-06T03:31:02;24.90;55.80
20526;DHT22;10421;49.142;9.232;2022-08-06T03:33:29;24.90;56.00
20526;DHT22;10421;49.142;9.232;2022-08-06T03:36:00;24.80;55.90
20526;DHT22;10421;49.142;9.232;2022-08-06T03:38:28;24.80;56.00
20526;DHT22;10421;49.142;9.232;2022-08-06T03:40:58;24.80;55.90
20526;DHT22;10421;49.142;9.232;2022-08-06T03:43:25;24.80;56.10
20526;DHT22;10421;49.142;9.232;2022-08-06T03:45:53;24.80;56.10
20526;DHT22;10421;49.142;9.232;2022-08-06T03:48:24;24.90;56.20
20526;DHT22;10421;49.142;9.232;2022-08-06T03:50:53;24.90;56.10
20526;DHT22;10421;49.142;9.232;2022-08-06T03:53:24;24.90;56.10
20526;DHT22;10421;49.142;9.232;2022-08-06T03:55:52;24.90;56.00
20526;DHT22;10421;49.142;9.232;2022-08-06T03:58:21;25.00;56.10
20526;DHT22;10421;49.142;9.232;2022-08-06T04:00:51;24.90;56.10
20526;DHT22;10421;49.142;9.232;2022-08-06T04:03:20;24.90;56.10
20526;DHT22;10421;49.142;9.232;2022-08-06T04:05:47;24.90;56.10
20526;DHT22;10421;49.142;9.232;2022-08-06T04:08:15;24.90;56.20
20526;DHT22;10421;49.142;9.232;2022-08-06T04:10:45;24.90;56.20
20526;DHT22;10421;49.142;9.232;2022-08-06T04:13:15;24.90;56.20
20526;DHT22;10421;49.142;9.232;2022-08-06T04:15:42;24.90;56.40
20526;DHT22;10421;49.142;9.232;2022-08-06T04:18:14;24.80;56.40
20526;DHT22;10421;49.142;9.232;2022-08-06T04:20:45;24.80;56.50
20526;DHT22;10421;49.142;9.232;2022-08-06T04:23:12;24.80;56.50
20526;DHT22;10421;49.142;9.232;2022-08-06T04:25:42;24.80;56.60
20526;DHT22;10421;49.142;9.232;2022-08-06T04:28:11;24.70;56.60
20526;DHT22;10421;49.142;9.232;2022-08-06T04:30:40;24.70;56.70
20526;DHT22;10421;49.142;9.232;2022-08-06T04:33:14;24.70;56.70
20526;DHT22;10421;49.142;9.232;2022-08-06T04:35:42;24.70;56.80
20526;DHT22;10421;49.142;9.232;2022-08-06T04:38:10;24.70;56.80
20526;DHT22;10421;49.142;9.232;2022-08-06T04:40:38;24.70;56.80
20526;DHT22;10421;49.142;9.232;2022-08-06T04:43:06;24.70;56.90
20526;DHT22;10421;49.142;9.232;2022-08-06T04:45:35;24.70;56.90
20526;DHT22;10421;49.142;9.232;2022-08-06T04:48:04;24.70;57.00
20526;DHT22;10421;49.142;9.232;2022-08-06T04:50:32;24.70;57.00
20526;DHT22;10421;49.142;9.232;2022-08-06T04:53:06;24.70;57.00
20526;DHT22;10421;49.142;9.232;2022-08-06T04:55:33;24.60;57.00
20526;DHT22;10421;49.142;9.232;2022-08-06T04:58:01;24.60;57.10
20526;DHT22;10421;49.142;9.232;2022-08-06T05:00:28;24.60;57.10
20526;DHT22;10421;49.142;9.232;2022-08-06T05:02:57;24.60;57.10
20526;DHT22;10421;49.142;9.232;2022-08-06T05:05:24;24.60;57.20
20526;DHT22;10421;49.142;9.232;2022-08-06T05:07:53;24.60;57.20
20526;DHT22;10421;49.142;9.232;2022-08-06T05:10:21;24.50;57.40
20526;DHT22;10421;49.142;9.232;2022-08-06T05:12:53;24.40;57.50
20526;DHT22;10421;49.142;9.232;2022-08-06T05:15:25;24.40;57.60
20526;DHT22;10421;49.142;9.232;2022-08-06T05:17:58;24.40;57.50
20526;DHT22;10421;49.142;9.232;2022-08-06T05:20:28;24.50;57.50
20526;DHT22;10421;49.142;9.232;2022-08-06T05:22:59;24.40;57.60
20526;DHT22;10421;49.142;9.232;2022-08-06T05:25:27;24.40;57.70
20526;DHT22;10421;49.142;9.232;2022-08-06T05:27:54;24.40;57.70
20526;DHT22;10421;49.142;9.232;2022-08-06T05:30:21;24.40;57.80
20526;DHT22;10421;49.142;9.232;2022-08-06T05:32:49;24.30;57.80
20526;DHT22;10421;49.142;9.232;2022-08-06T05:35:17;24.40;57.70
20526;DHT22;10421;49.142;9.232;2022-08-06T05:37:44;24.30;57.60
20526;DHT22;10421;49.142;9.232;2022-08-06T05:40:10;24.30;57.40
20526;DHT22;10421;49.142;9.232;2022-08-06T05:42:37;24.30;57.50
20526;DHT22;10421;49.142;9.232;2022-08-06T05:45:06;24.30;57.50
20526;DHT22;10421;49.142;9.232;2022-08-06T05:47:36;24.20;57.40
20526;DHT22;10421;49.142;9.232;2022-08-06T05:50:08;24.20;57.40
20526;DHT22;10421;49.142;9.232;2022-08-06T05:52:43;24.20;57.20
20526;DHT22;10421;49.142;9.232;2022-08-06T05:55:15;24.10;56.60
20526;DHT22;10421;49.142;9.232;2022-08-06T05:57:47;24.10;56.60
20526;DHT22;10421;49.142;9.232;2022-08-06T06:00:18;24.00;56.30
20526;DHT22;10421;49.142;9.232;2022-08-06T06:02:48;24.00;56.10
20526;DHT22;10421;49.142;9.232;2022-08-06T06:05:15;23.90;56.20
20526;DHT22;10421;49.142;9.232;2022-08-06T06:07:44;23.80;56.00
20526;DHT22;10421;49.142;9.232;2022-08-06T06:10:11;23.80;56.00
20526;DHT22;10421;49.142;9.232;2022-08-06T06:12:39;23.80;56.30
20526;DHT22;10421;49.142;9.232;2022-08-06T06:15:10;23.90;56.20
20526;DHT22;10421;49.142;9.232;2022-08-06T06:17:51;23.90;56.20
20526;DHT22;10421;49.142;9.232;2022-08-06T06:20:27;24.00;56.00
20526;DHT22;10421;49.142;9.232;2022-08-06T06:23:00;24.10;55.40
20526;DHT22;10421;49.142;9.232;2022-08-06T06:25:31;24.10;55.30
20526;DHT22;10421;49.142;9.232;2022-08-06T06:28:02;24.20;55.30
20526;DHT22;10421;49.142;9.232;2022-08-06T06:30:36;24.30;55.00
20526;DHT22;10421;49.142;9.232;2022-08-06T06:33:14;24.30;54.40
20526;DHT22;10421;49.142;9.232;2022-08-06T06:35:48;24.30;53.90
20526;DHT22;10421;49.142;9.232;2022-08-06T06:38:25;24.30;53.70
20526;DHT22;10421;49.142;9.232;2022-08-06T06:40:58;24.30;53.10
20526;DHT22;10421;49.142;9.232;2022-08-06T06:43:33;24.30;53.30
20526;DHT22;10421;49.142;9.232;2022-08-06T06:46:08;24.30;53.30
20526;DHT22;10421;49.142;9.232;2022-08-06T06:48:45;24.40;53.10
20526;DHT22;10421;49.142;9.232;2022-08-06T06:51:20;24.40;53.10
20526;DHT22;10421;49.142;9.232;2022-08-06T06:53:52;24.50;53.00
20526;DHT22;10421;49.142;9.232;2022-08-06T06:56:21;24.60;52.70
20526;DHT22;10421;49.142;9.232;2022-08-06T06:58:52;24.60;52.70
20526;DHT22;10421;49.142;9.232;2022-08-06T07:01:22;24.60;52.50
20526;DHT22;10421;49.142;9.232;2022-08-06T07:03:49;24.60;52.40
20526;DHT22;10421;49.142;9.232;2022-08-06T07:06:17;24.60;52.40
20526;DHT22;10421;49.142;9.232;2022-08-06T07:08:46;24.60;52.40
20526;DHT22;10421;49.142;9.232;2022-08-06T07:11:19;24.50;52.40
20526;DHT22;10421;49.142;9.232;2022-08-06T07:13:47;24.60;52.70
20526;DHT22;10421;49.142;9.232;2022-08-06T07:16:17;24.60;52.80
20526;DHT22;10421;49.142;9.232;2022-08-06T07:18:45;24.70;52.60
20526;DHT22;10421;49.142;9.232;2022-08-06T07:21:14;24.80;52.60
20526;DHT22;10421;49.142;9.232;2022-08-06T07:23:43;24.90;52.10
20526;DHT22;10421;49.142;9.232;2022-08-06T07:26:13;25.00;51.90
20526;DHT22;10421;49.142;9.232;2022-08-06T07:28:42;25.10;51.60
20526;DHT22;10421;49.142;9.232;2022-08-06T07:31:10;25.20;51.30
20526;DHT22;10421;49.142;9.232;2022-08-06T07:33:44;25.30;50.90
20526;DHT22;10421;49.142;9.232;2022-08-06T07:36:15;25.40;50.60
20526;DHT22;10421;49.142;9.232;2022-08-06T07:38:44;25.40;49.90
20526;DHT22;10421;49.142;9.232;2022-08-06T07:41:12;25.50;49.80
20526;DHT22;10421;49.142;9.232;2022-08-06T07:43:45;25.60;49.40
20526;DHT22;10421;49.142;9.232;2022-08-06T07:46:16;25.60;48.80
20526;DHT22;10421;49.142;9.232;2022-08-06T07:48:46;25.60;48.60
20526;DHT22;10421;49.142;9.232;2022-08-06T07:51:14;25.60;48.10
20526;DHT22;10421;49.142;9.232;2022-08-06T07:53:42;25.60;47.60
20526;DHT22;10421;49.142;9.232;2022-08-06T07:56:10;25.50;47.00
20526;DHT22;10421;49.142;9.232;2022-08-06T07:58:38;25.60;47.50
20526;DHT22;10421;49.142;9.232;2022-08-06T08:01:07;25.60;47.60
20526;DHT22;10421;49.142;9.232;2022-08-06T08:03:34;25.60;47.30
20526;DHT22;10421;49.142;9.232;2022-08-06T08:06:20;25.70;47.30
20526;DHT22;10421;49.142;9.232;2022-08-06T08:08:53;25.80;47.30
20526;DHT22;10421;49.142;9.232;2022-08-06T08:11:21;25.90;46.80
20526;DHT22;10421;49.142;9.232;2022-08-06T08:13:51;26.00;46.20
20526;DHT22;10421;49.142;9.232;2022-08-06T08:16:20;26.00;46.40
20526;DHT22;10421;49.142;9.232;2022-08-06T08:18:47;26.10;47.10
20526;DHT22;10421;49.142;9.232;2022-08-06T08:21:15;26.10;46.50
20526;DHT22;10421;49.142;9.232;2022-08-06T08:23:43;26.20;46.40
20526;DHT22;10421;49.142;9.232;2022-08-06T08:26:10;26.40;46.40
20526;DHT22;10421;49.142;9.232;2022-08-06T08:28:37;26.40;46.70
20526;DHT22;10421;49.142;9.232;2022-08-06T08:31:04;26.50;46.30
20526;DHT22;10421;49.142;9.232;2022-08-06T08:33:33;26.60;46.20
20526;DHT22;10421;49.142;9.232;2022-08-06T08:36:00;26.60;45.70
20526;DHT22;10421;49.142;9.232;2022-08-06T08:38:27;26.70;45.80
20526;DHT22;10421;49.142;9.232;2022-08-06T08:40:55;26.70;45.60
20526;DHT22;10421;49.142;9.232;2022-08-06T08:43:25;26.70;45.30
20526;DHT22;10421;49.142;9.232;2022-08-06T08:45:52;26.80;44.90
20526;DHT22;10421;49.142;9.232;2022-08-06T08:48:23;26.80;44.40
20526;DHT22;10421;49.142;9.232;2022-08-06T08:50:56;26.80;43.90
20526;DHT22;10421;49.142;9.232;2022-08-06T08:53:29;26.80;44.00
20526;DHT22;10421;49.142;9.232;2022-08-06T08:56:00;26.90;44.20
20526;DHT22;10421;49.142;9.232;2022-08-06T08:58:27;26.90;44.10
20526;DHT22;10421;49.142;9.232;2022-08-06T09:00:57;27.00;43.70
20526;DHT22;10421;49.142;9.232;2022-08-06T09:03:23;27.10;43.70
20526;DHT22;10421;49.142;9.232;2022-08-06T09:05:50;27.20;43.80
20526;DHT22;10421;49.142;9.232;2022-08-06T09:08:19;27.20;43.60
20526;DHT22;10421;49.142;9.232;2022-08-06T09:10:46;27.20;43.50
20526;DHT22;10421;49.142;9.232;2022-08-06T09:13:13;27.30;43.50
20526;DHT22;10421;49.142;9.232;2022-08-06T09:15:40;27.40;43.00
20526;DHT22;10421;49.142;9.232;2022-08-06T09:18:06;27.40;43.00
20526;DHT22;10421;49.142;9.232;2022-08-06T09:20:34;27.50;43.10
20526;DHT22;10421;49.142;9.232;2022-08-06T09:23:01;27.60;42.60
20526;DHT22;10421;49.142;9.232;2022-08-06T09:25:40;27.70;42.60
20526;DHT22;10421;49.142;9.232;2022-08-06T09:28:10;27.70;42.90
20526;DHT22;10421;49.142;9.232;2022-08-06T09:30:38;27.90;42.30
20526;DHT22;10421;49.142;9.232;2022-08-06T09:33:10;27.90;42.00
20526;DHT22;10421;49.142;9.232;2022-08-06T09:35:38;27.90;42.00
20526;DHT22;10421;49.142;9.232;2022-08-06T09:38:06;28.00;42.00
20526;DHT22;10421;49.142;9.232;2022-08-06T09:40:33;28.10;41.90
20526;DHT22;10421;49.142;9.232;2022-08-06T09:43:02;28.20;41.40
20526;DHT22;10421;49.142;9.232;2022-08-06T09:45:28;28.20;41.30
20526;DHT22;10421;49.142;9.232;2022-08-06T09:48:03;28.30;41.00
20526;DHT22;10421;49.142;9.232;2022-08-06T09:50:38;28.30;40.80
20526;DHT22;10421;49.142;9.232;2022-08-06T09:53:05;28.40;40.90
20526;DHT22;10421;49.142;9.232;2022-08-06T09:55:32;28.40;40.60
20526;DHT22;10421;49.142;9.232;2022-08-06T09:57:59;28.60;40.80
20526;DHT22;10421;49.142;9.232;2022-08-06T10:00:29;28.60;40.30
20526;DHT22;10421;49.142;9.232;2022-08-06T10:02:57;28.60;40.30
20526;DHT22;10421;49.142;9.232;2022-08-06T10:05:25;28.70;40.40
20526;DHT22;10421;49.142;9.232;2022-08-06T10:08:05;28.60;40.20
20526;DHT22;10421;49.142;9.232;2022-08-06T10:10:44;28.70;40.30
20526;DHT22;10421;49.142;9.232;2022-08-06T10:13:21;28.80;40.40
20526;DHT22;10421;49.142;9.232;2022-08-06T10:15:51;28.90;40.30
20526;DHT22;10421;49.142;9.232;2022-08-06T10:18:36;29.00;40.20
20526;DHT22;10421;49.142;9.232;2022-08-06T10:21:05;29.10;40.10
20526;DHT22;10421;49.142;9.232;2022-08-06T10:23:33;29.20;39.80
20526;DHT22;10421;49.142;9.232;2022-08-06T10:26:02;29.30;39.60
20526;DHT22;10421;49.142;9.232;2022-08-06T10:28:29;29.30;39.10
20526;DHT22;10421;49.142;9.232;2022-08-06T10:31:02;29.40;39.00
20526;DHT22;10421;49.142;9.232;2022-08-06T10:33:32;29.50;39.10
20526;DHT22;10421;49.142;9.232;2022-08-06T10:36:03;29.50;39.00
20526;DHT22;10421;49.142;9.232;2022-08-06T10:38:33;29.60;38.70
20526;DHT22;10421;49.142;9.232;2022-08-06T10:41:03;29.50;38.20
20526;DHT22;10421;49.142;9.232;2022-08-06T10:43:32;29.50;38.30
20526;DHT22;10421;49.142;9.232;2022-08-06T10:46:03;29.40;39.00
20526;DHT22;10421;49.142;9.232;2022-08-06T10:48:31;29.50;38.70
20526;DHT22;10421;49.142;9.232;2022-08-06T10:50:58;29.50;38.70
20526;DHT22;10421;49.142;9.232;2022-08-06T10:53:25;29.60;38.60
20526;DHT22;10421;49.142;9.232;2022-08-06T10:55:52;29.60;38.50
20526;DHT22;10421;49.142;9.232;2022-08-06T10:58:20;29.70;38.30
20526;DHT22;10421;49.142;9.232;2022-08-06T11:00:47;29.70;38.30
20526;DHT22;10421;49.142;9.232;2022-08-06T11:03:19;29.80;38.00
20526;DHT22;10421;49.142;9.232;2022-08-06T11:05:52;29.90;37.70
20526;DHT22;10421;49.142;9.232;2022-08-06T11:08:38;29.90;37.60
20526;DHT22;10421;49.142;9.232;2022-08-06T11:11:23;29.90;37.30
20526;DHT22;10421;49.142;9.232;2022-08-06T11:14:02;30.00;37.40
20526;DHT22;10421;49.142;9.232;2022-08-06T11:16:30;30.00;37.60
20526;DHT22;10421;49.142;9.232;2022-08-06T11:19:00;30.00;37.70
20526;DHT22;10421;49.142;9.232;2022-08-06T11:21:39;30.10;37.50
20526;DHT22;10421;49.142;9.232;2022-08-06T11:24:07;30.00;36.90
20526;DHT22;10421;49.142;9.232;2022-08-06T11:26:35;30.00;37.20
20526;DHT22;10421;49.142;9.232;2022-08-06T11:29:02;30.10;37.40
20526;DHT22;10421;49.142;9.232;2022-08-06T11:31:35;30.10;37.30
20526;DHT22;10421;49.142;9.232;2022-08-06T11:34:06;30.10;37.00
20526;DHT22;10421;49.142;9.232;2022-08-06T11:36:59;30.00;37.00
20526;DHT22;10421;49.142;9.232;2022-08-06T11:39:26;30.10;37.00
20526;DHT22;10421;49.142;9.232;2022-08-06T11:41:58;30.10;36.90
20526;DHT22;10421;49.142;9.232;2022-08-06T11:44:34;30.20;37.10
20526;DHT22;10421;49.142;9.232;2022-08-06T11:47:12;30.20;37.00
20526;DHT22;10421;49.142;9.232;2022-08-06T11:49:43;30.40;36.90
20526;DHT22;10421;49.142;9.232;2022-08-06T11:52:41;30.50;36.50
20526;DHT22;10421;49.142;9.232;2022-08-06T11:55:10;30.50;36.10
20526;DHT22;10421;49.142;9.232;2022-08-06T11:57:36;30.50;36.70
20526;DHT22;10421;49.142;9.232;2022-08-06T12:00:19;30.60;36.10
20526;DHT22;10421;49.142;9.232;2022-08-06T12:02:56;30.70;36.00
20526;DHT22;10421;49.142;9.232;2022-08-06T12:05:47;30.80;35.90
20526;DHT22;10421;49.142;9.232;2022-08-06T12:08:24;30.80;35.60
20526;DHT22;10421;49.142;9.232;2022-08-06T12:11:20;30.80;35.50
20526;DHT22;10421;49.142;9.232;2022-08-06T12:13:47;30.90;35.40
20526;DHT22;10421;49.142;9.232;2022-08-06T12:16:36;30.80;35.40
20526;DHT22;10421;49.142;9.232;2022-08-06T12:19:04;30.70;35.60
20526;DHT22;10421;49.142;9.232;2022-08-06T12:21:31;30.50;35.60
20526;DHT22;10421;49.142;9.232;2022-08-06T12:24:01;30.50;36.00
20526;DHT22;10421;49.142;9.232;2022-08-06T12:26:30;30.60;35.80
20526;DHT22;10421;49.142;9.232;2022-08-06T12:29:02;30.70;35.40
20526;DHT22;10421;49.142;9.232;2022-08-06T12:31:31;30.80;35.30
20526;DHT22;10421;49.142;9.232;2022-08-06T12:33:58;30.90;35.80
20526;DHT22;10421;49.142;9.232;2022-08-06T12:36:27;31.00;35.50
20526;DHT22;10421;49.142;9.232;2022-08-06T12:38:56;31.10;35.30
20526;DHT22;10421;49.142;9.232;2022-08-06T12:41:35;31.20;34.80
20526;DHT22;10421;49.142;9.232;2022-08-06T12:44:02;31.30;34.60
20526;DHT22;10421;49.142;9.232;2022-08-06T12:46:29;31.40;34.80
20526;DHT22;10421;49.142;9.232;2022-08-06T12:48:56;31.40;34.70
20526;DHT22;10421;49.142;9.232;2022-08-06T12:51:23;31.50;34.30
20526;DHT22;10421;49.142;9.232;2022-08-06T12:53:52;31.40;34.70
20526;DHT22;10421;49.142;9.232;2022-08-06T12:56:21;31.50;34.60
20526;DHT22;10421;49.142;9.232;2022-08-06T12:58:51;31.60;34.30
20526;DHT22;10421;49.142;9.232;2022-08-06T13:01:19;31.60;34.30
20526;DHT22;10421;49.142;9.232;2022-08-06T13:03:49;31.70;34.20
20526;DHT22;10421;49.142;9.232;2022-08-06T13:06:18;31.80;33.90
20526;DHT22;10421;49.142;9.232;2022-08-06T13:08:46;31.90;33.90
20526;DHT22;10421;49.142;9.232;2022-08-06T13:11:13;31.90;33.50
20526;DHT22;10421;49.142;9.232;2022-08-06T13:13:42;32.00;33.30
20526;DHT22;10421;49.142;9.232;2022-08-06T13:16:11;32.00;33.00
20526;DHT22;10421;49.142;9.232;2022-08-06T13:18:39;32.10;33.00
20526;DHT22;10421;49.142;9.232;2022-08-06T13:21:16;32.20;32.90
20526;DHT22;10421;49.142;9.232;2022-08-06T13:23:45;32.20;32.80
20526;DHT22;10421;49.142;9.232;2022-08-06T13:26:15;32.30;32.90
20526;DHT22;10421;49.142;9.232;2022-08-06T13:29:03;32.30;32.80
20526;DHT22;10421;49.142;9.232;2022-08-06T13:31:31;32.40;33.50
20526;DHT22;10421;49.142;9.232;2022-08-06T13:33:59;32.40;32.80
20526;DHT22;10421;49.142;9.232;2022-08-06T13:36:28;32.40;32.50
20526;DHT22;10421;49.142;9.232;2022-08-06T13:38:55;32.50;32.50
20526;DHT22;10421;49.142;9.232;2022-08-06T13:41:24;32.60;32.40
20526;DHT22;10421;49.142;9.232;2022-08-06T13:43:52;32.70;32.30
20526;DHT22;10421;49.142;9.232;2022-08-06T13:46:19;32.70;32.10
20526;DHT22;10421;49.142;9.232;2022-08-06T13:48:48;32.90;31.80
20526;DHT22;10421;49.142;9.232;2022-08-06T13:51:17;32.90;31.50
20526;DHT22;10421;49.142;9.232;2022-08-06T13:53:45;32.90;31.20
20526;DHT22;10421;49.142;9.232;2022-08-06T13:56:13;32.80;31.10
20526;DHT22;10421;49.142;9.232;2022-08-06T13:58:40;32.70;31.10
20526;DHT22;10421;49.142;9.232;2022-08-06T14:01:07;32.70;31.00
20526;DHT22;10421;49.142;9.232;2022-08-06T14:03:34;32.80;31.10
20526;DHT22;10421;49.142;9.232;2022-08-06T14:06:02;32.80;30.80
20526;DHT22;10421;49.142;9.232;2022-08-06T14:08:28;32.90;30.80
20526;DHT22;10421;49.142;9.232;2022-08-06T14:10:55;32.90;30.60
20526;DHT22;10421;49.142;9.232;2022-08-06T14:13:22;32.90;30.30
20526;DHT22;10421;49.142;9.232;2022-08-06T14:15:50;32.90;30.50
20526;DHT22;10421;49.142;9.232;2022-08-06T14:18:18;32.90;30.50
20526;DHT22;10421;49.142;9.232;2022-08-06T14:20:45;33.00;30.30
20526;DHT22;10421;49.142;9.232;2022-08-06T14:23:14;33.00;30.20
20526;DHT22;10421;49.142;9.232;2022-08-06T14:25:41;33.00;30.20
20526;DHT22;10421;49.142;9.232;2022-08-06T14:28:08;33.00;30.00
20526;DHT22;10421;49.142;9.232;2022-08-06T14:30:34;33.10;30.00
20526;DHT22;10421;49.142;9.232;2022-08-06T14:33:03;33.10;29.80
20526;DHT22;10421;49.142;9.232;2022-08-06T14:35:33;33.10;29.50
20526;DHT22;10421;49.142;9.232;2022-08-06T14:38:01;33.20;29.50
20526;DHT22;10421;49.142;9.232;2022-08-06T14:40:30;33.30;30.00
20526;DHT22;10421;49.142;9.232;2022-08-06T14:43:15;33.40;29.30
20526;DHT22;10421;49.142;9.232;2022-08-06T14:45:59;33.40;29.00
20526;DHT22;10421;49.142;9.232;2022-08-06T14:48:26;33.40;28.80
20526;DHT22;10421;49.142;9.232;2022-08-06T14:50:52;33.30;28.80
20526;DHT22;10421;49.142;9.232;2022-08-06T14:53:25;33.30;29.10
20526;DHT22;10421;49.142;9.232;2022-08-06T14:55:53;33.20;28.80
20526;DHT22;10421;49.142;9.232;2022-08-06T14:58:20;33.20;28.70
20526;DHT22;10421;49.142;9.232;2022-08-06T15:00:46;33.20;28.70
20526;DHT22;10421;49.142;9.232;2022-08-06T15:03:14;33.30;28.80
20526;DHT22;10421;49.142;9.232;2022-08-06T15:05:41;33.30;28.30
20526;DHT22;10421;49.142;9.232;2022-08-06T15:08:08;33.30;28.40
20526;DHT22;10421;49.142;9.232;2022-08-06T15:10:35;33.10;28.10
20526;DHT22;10421;49.142;9.232;2022-08-06T15:13:03;33.20;28.40
20526;DHT22;10421;49.142;9.232;2022-08-06T15:15:30;33.10;28.50
20526;DHT22;10421;49.142;9.232;2022-08-06T15:17:57;33.10;28.40
20526;DHT22;10421;49.142;9.232;2022-08-06T15:20:24;33.20;28.30
20526;DHT22;10421;49.142;9.232;2022-08-06T15:22:52;33.20;28.30
20526;DHT22;10421;49.142;9.232;2022-08-06T15:25:19;33.20;28.40
20526;DHT22;10421;49.142;9.232;2022-08-06T15:27:45;33.20;28.30
20526;DHT22;10421;49.142;9.232;2022-08-06T15:30:14;33.20;28.50
20526;DHT22;10421;49.142;9.232;2022-08-06T15:32:41;33.20;28.50
20526;DHT22;10421;49.142;9.232;2022-08-06T15:35:08;33.20;28.50
20526;DHT22;10421;49.142;9.232;2022-08-06T15:37:34;33.20;28.40
20526;DHT22;10421;49.142;9.232;2022-08-06T15:40:03;33.30;28.30
20526;DHT22;10421;49.142;9.232;2022-08-06T15:42:30;33.30;28.40
20526;DHT22;10421;49.142;9.232;2022-08-06T15:44:56;33.30;28.20
20526;DHT22;10421;49.142;9.232;2022-08-06T15:47:25;33.30;28.00